< Typhoon 200213 2002 Season Typhoon 200215 >
Typhoon 200214 (VONGFONG)
General InformationTrack Information on Google MapsDetailed Wind InformationList of All Images || NewsDisaster Info.ResourceGoogle EarthGE AnimationAtom FeedGeoJSON
Detalied Best Track (Time Zone = UTC)
Year Month Day Hour Lat. Long. Pressure (hPa) Wind (kt) Class Image Chart
2002 8 15 06 13.5 113.6 994 0 2 Image Chart
2002 8 15 12 14.0 113.8 992 0 2 Image Chart
2002 8 15 18 14.5 113.4 992 0 2 Image Chart
2002 8 16 00 14.6 113.7 992 0 2 Image Chart
2002 8 16 06 15.3 114.3 990 0 2 Image Chart
2002 8 16 12 15.1 114.0 990 0 2 Image Chart
2002 8 16 18 15.0 114.3 990 0 2 Image Chart
2002 8 17 00 16.1 114.6 990 0 2 Image Chart
2002 8 17 06 16.3 113.6 990 0 2 Image Chart
2002 8 17 12 16.2 113.5 990 0 2 Image Chart
2002 8 17 18 16.2 112.8 990 0 2 Image Chart
2002 8 18 00 16.3 112.5 985 35 3 Image Chart
2002 8 18 06 16.7 112.0 985 40 3 Image Chart
2002 8 18 12 16.9 111.8 985 40 3 Image Chart
2002 8 18 18 17.6 111.5 985 40 3 Image Chart
2002 8 19 00 18.3 111.2 985 40 3 Image Chart
2002 8 19 06 19.9 111.0 985 40 3 Image Chart
2002 8 19 12 21.3 110.6 985 40 3 Image Chart
2002 8 19 18 23.0 110.0 992 35 3 Image Chart
2002 8 19 21 24.1 109.7 996 0 2 Image Chart
2002 8 20 00 25.0 108.0 1000 0 2 Image Chart
Japan Meteorological Agency Best Track Data | Correction Date : 2006-01-18
< Typhoon 200213 2002 Season Typhoon 200215 >

Help